Higgins Lake, MI

2:19 AM EDT on September 21, 2014 (GMT -0400)
Higgins Lake Point Detroit | Change Station
CLOSE
Current Station
Personal Weather Station
Location: Roscommon, MI
Elevation: 1165 ft
Nearby Weather Stations

Elev 1165 ft 44.47 °N, 84.71 °W | Updated 2 seconds ago

Overcast
Overcast
58.8 °F
Feels Like 58.8 °F
N
1.6
Wind Variable Wind from North
Gusts 1.6 mph

Today
High -- | Low -- °F
--% Chance of Precip.
Yesterday
High -- | Low -- °F
Precip. -- in
7:24 AM 7:38 PM
Waning Crescent, 8% visible
Pressure 29.65 in
Visibility 10.0 miles
Clouds Mostly Cloudy 5000 ft
Mostly Cloudy 7500 ft
Mostly Cloudy 11000 ft
Dew Point 56 °F
Humidity 92%
Rainfall 0.00 in
Snow Depth Not available.
UV 0 out of 12
Pollen .50 out of 12
Ozone Good
PM2.5 Good
Flu Activity Not available.
METAR KHTL 210553Z AUTO 00000KT 10SM BKN050 BKN075 BKN110 14/14 A2966 RMK AO2 RAE40 TSB01E19 SLP040 P0020 60021 T01440139 10178 20144 58016

More Conditions Fewer Conditions

Pressure 29.65 in
Visibility 10.0 miles
Clouds Mostly Cloudy 5000 ft
Mostly Cloudy 7500 ft
Mostly Cloudy 11000 ft
Dew Point 56 °F
Humidity 92%
Rainfall 0.00 in
Snow Depth Not available.
UV 0 out of 12
Pollen .50 out of 12
Ozone Good
PM2.5 Good
Flu Activity Not available.
METAR KHTL 210553Z AUTO 00000KT 10SM BKN050 BKN075 BKN110 14/14 A2966 RMK AO2 RAE40 TSB01E19 SLP040 P0020 60021 T01440139 10178 20144 58016

More Conditions Fewer Conditions

Nowcast | as of 2:00 am EDT on September 21, 2014

At 3 am...thunderstorms likely. Temperature 58. Northwest winds 6 mph. At 5 am...thunderstorms likely. Temperature 56. North winds 5 mph. At 7 am...thunderstorms likely. Temperature 54. North winds 6 mph. At 9 am...rain showers likely and chance of thunderstorms. Temperature 54. Northwest winds 6 mph.

×

10-Day Weather Forecast

Almanac

Astronomy

Sep. 21, 2014 Rise Set
Actual Time 7:24 AM EDT 7:38 PM EDT
Civil Twilight 6:55 AM EDT 8:07 PM EDT
Nautical Twilight 6:21 AM EDT 8:41 PM EDT
Astronomical Twilight 5:46 AM EDT 9:16 PM EDT
Moon 4:53 AM EDT 6:17 PM EDT
Length of Visible Light 13h 11m
Length of Day
12h 13m
Tomorrow will be 3m 3s shorter.
Waning Crescent, 8% of the Moon is Illuminated
Today
Waning Crescent
Sep 24
New
Oct 1
First Quarter
Oct 8
Full
Oct 15
Last Quarter

Today's Extremes

State Highs State Lows

Community

WunderPhotos

Upload Photos

1,755,098 photos uploaded!

Nearby

Air Quality

  Air Quality AQ Index Pollutant
Yesterday Moderate
PM2.5
Yesterday Good
OZONE
Current Good
PM2.5
Current Good
OZONE
Sunday Good
OZONE
Sunday Good
PM2.5
Monday Good
OZONE
Monday Good
PM2.5

Snow Depth

Station Depth Elevation
No new snow has been reported.

Earthquake Activity

City Distance Mag. Time & Date
No recent earthquake activity has been reported nearby.
Minimum magnitude displayed is 2.5.

Coastal Water Temperatures

Place Temperature
No Stations Reporting

Nearby Weather Stations